sensor_id;sensor_type;location;lat;lon;timestamp;pressure;altitude;pressure_sealevel;temperature;humidity
71643;BME280;59438;45.014;39.006;2022-09-01T00:02:16;100490.56;;;23.64;63.19
71643;BME280;59438;45.014;39.006;2022-09-01T00:04:44;100502.84;;;23.66;63.74
71643;BME280;59438;45.014;39.006;2022-09-01T00:07:11;100495.09;;;23.63;63.69
71643;BME280;59438;45.014;39.006;2022-09-01T00:09:38;100505.97;;;23.62;63.87
71643;BME280;59438;45.014;39.006;2022-09-01T00:12:07;100493.03;;;23.47;64.42
71643;BME280;59438;45.014;39.006;2022-09-01T00:14:37;100510.22;;;23.54;63.87
71643;BME280;59438;45.014;39.006;2022-09-01T00:17:08;100509.38;;;23.54;64.56
71643;BME280;59438;45.014;39.006;2022-09-01T00:19:36;100502.50;;;23.51;63.96
71643;BME280;59438;45.014;39.006;2022-09-01T00:22:03;100501.09;;;23.47;64.39
71643;BME280;59438;45.014;39.006;2022-09-01T00:24:30;100504.75;;;23.46;64.37
71643;BME280;59438;45.014;39.006;2022-09-01T00:26:57;100509.41;;;23.44;64.57
71643;BME280;59438;45.014;39.006;2022-09-01T00:29:25;100496.88;;;23.35;65.01
71643;BME280;59438;45.014;39.006;2022-09-01T00:31:52;100502.78;;;23.39;64.81
71643;BME280;59438;45.014;39.006;2022-09-01T00:34:19;100504.63;;;23.38;64.79
71643;BME280;59438;45.014;39.006;2022-09-01T00:36:45;100505.63;;;23.37;65.00
71643;BME280;59438;45.014;39.006;2022-09-01T00:39:12;100503.22;;;23.34;64.85
71643;BME280;59438;45.014;39.006;2022-09-01T00:41:40;100498.69;;;23.34;65.34
71643;BME280;59438;45.014;39.006;2022-09-01T00:44:08;100491.94;;;23.30;65.65
71643;BME280;59438;45.014;39.006;2022-09-01T00:46:40;100477.72;;;23.20;66.29
71643;BME280;59438;45.014;39.006;2022-09-01T00:49:10;100490.41;;;23.28;65.98
71643;BME280;59438;45.014;39.006;2022-09-01T00:51:38;100491.28;;;23.19;66.00
71643;BME280;59438;45.014;39.006;2022-09-01T00:54:07;100483.13;;;23.10;66.16
71643;BME280;59438;45.014;39.006;2022-09-01T00:56:36;100501.13;;;23.18;66.62
71643;BME280;59438;45.014;39.006;2022-09-01T00:59:05;100512.41;;;23.12;66.29
71643;BME280;59438;45.014;39.006;2022-09-01T01:01:33;100497.47;;;23.09;66.12
71643;BME280;59438;45.014;39.006;2022-09-01T01:04:02;100488.19;;;23.04;66.84
71643;BME280;59438;45.014;39.006;2022-09-01T01:06:29;100486.38;;;23.04;66.45
71643;BME280;59438;45.014;39.006;2022-09-01T01:08:56;100482.81;;;23.04;66.47
71643;BME280;59438;45.014;39.006;2022-09-01T01:11:24;100477.63;;;23.02;66.60
71643;BME280;59438;45.014;39.006;2022-09-01T01:13:53;100472.50;;;22.99;66.57
71643;BME280;59438;45.014;39.006;2022-09-01T01:16:20;100483.09;;;23.01;66.48
71643;BME280;59438;45.014;39.006;2022-09-01T01:18:47;100483.81;;;23.03;66.54
71643;BME280;59438;45.014;39.006;2022-09-01T01:21:19;100460.69;;;22.92;66.97
71643;BME280;59438;45.014;39.006;2022-09-01T01:23:47;100487.34;;;23.13;66.14
71643;BME280;59438;45.014;39.006;2022-09-01T01:26:18;100488.03;;;23.05;66.73
71643;BME280;59438;45.014;39.006;2022-09-01T01:28:44;100471.25;;;22.93;66.18
71643;BME280;59438;45.014;39.006;2022-09-01T01:31:13;100461.78;;;22.89;66.79
71643;BME280;59438;45.014;39.006;2022-09-01T01:33:42;100479.56;;;23.00;66.76
71643;BME280;59438;45.014;39.006;2022-09-01T01:36:11;100498.19;;;23.02;66.40
71643;BME280;59438;45.014;39.006;2022-09-01T01:38:39;100501.97;;;22.99;66.31
71643;BME280;59438;45.014;39.006;2022-09-01T01:41:06;100499.28;;;22.99;66.13
71643;BME280;59438;45.014;39.006;2022-09-01T01:43:34;100496.63;;;22.99;66.41
71643;BME280;59438;45.014;39.006;2022-09-01T01:46:00;100501.13;;;22.99;66.01
71643;BME280;59438;45.014;39.006;2022-09-01T01:48:28;100491.81;;;22.93;65.92
71643;BME280;59438;45.014;39.006;2022-09-01T01:50:55;100495.91;;;22.97;66.16
71643;BME280;59438;45.014;39.006;2022-09-01T01:53:22;100494.22;;;22.96;65.88
71643;BME280;59438;45.014;39.006;2022-09-01T01:55:48;100495.22;;;22.95;66.00
71643;BME280;59438;45.014;39.006;2022-09-01T01:58:15;100493.66;;;22.92;65.84
71643;BME280;59438;45.014;39.006;2022-09-01T02:00:44;100502.53;;;22.93;65.93
71643;BME280;59438;45.014;39.006;2022-09-01T02:03:10;100493.09;;;22.89;66.04
71643;BME280;59438;45.014;39.006;2022-09-01T02:05:38;100487.03;;;22.87;66.39
71643;BME280;59438;45.014;39.006;2022-09-01T02:08:06;100475.22;;;22.80;66.47
71643;BME280;59438;45.014;39.006;2022-09-01T02:10:37;100488.16;;;22.84;66.59
71643;BME280;59438;45.014;39.006;2022-09-01T02:13:05;100484.53;;;22.76;66.94
71643;BME280;59438;45.014;39.006;2022-09-01T02:15:33;100492.97;;;22.81;66.82
71643;BME280;59438;45.014;39.006;2022-09-01T02:18:01;100489.56;;;22.79;67.08
71643;BME280;59438;45.014;39.006;2022-09-01T02:20:28;100471.13;;;22.66;67.11
71643;BME280;59438;45.014;39.006;2022-09-01T02:22:54;100470.84;;;22.59;66.87
71643;BME280;59438;45.014;39.006;2022-09-01T02:25:21;100479.16;;;22.66;67.22
71643;BME280;59438;45.014;39.006;2022-09-01T02:27:48;100483.94;;;22.62;67.09
71643;BME280;59438;45.014;39.006;2022-09-01T02:30:15;100467.44;;;22.47;67.21
71643;BME280;59438;45.014;39.006;2022-09-01T02:32:41;100487.59;;;22.51;67.63
71643;BME280;59438;45.014;39.006;2022-09-01T02:35:09;100487.84;;;22.48;68.17
71643;BME280;59438;45.014;39.006;2022-09-01T02:37:37;100489.13;;;22.44;68.11
71643;BME280;59438;45.014;39.006;2022-09-01T02:40:07;100464.34;;;22.32;68.49
71643;BME280;59438;45.014;39.006;2022-09-01T02:42:33;100483.50;;;22.38;67.99
71643;BME280;59438;45.014;39.006;2022-09-01T02:45:00;100475.03;;;22.32;68.23
71643;BME280;59438;45.014;39.006;2022-09-01T02:47:26;100478.84;;;22.30;68.48
71643;BME280;59438;45.014;39.006;2022-09-01T02:49:53;100482.50;;;22.29;68.23
71643;BME280;59438;45.014;39.006;2022-09-01T02:52:21;100477.44;;;22.26;68.90
71643;BME280;59438;45.014;39.006;2022-09-01T02:54:47;100479.41;;;22.24;68.43
71643;BME280;59438;45.014;39.006;2022-09-01T02:57:14;100480.47;;;22.21;68.58
71643;BME280;59438;45.014;39.006;2022-09-01T02:59:41;100478.78;;;22.20;68.58
71643;BME280;59438;45.014;39.006;2022-09-01T03:02:08;100487.22;;;22.16;68.64
71643;BME280;59438;45.014;39.006;2022-09-01T03:04:35;100490.75;;;22.16;68.35
71643;BME280;59438;45.014;39.006;2022-09-01T03:07:03;100495.09;;;22.17;68.32
71643;BME280;59438;45.014;39.006;2022-09-01T03:09:31;100492.97;;;22.11;68.91
71643;BME280;59438;45.014;39.006;2022-09-01T03:11:57;100504.13;;;22.16;68.50
71643;BME280;59438;45.014;39.006;2022-09-01T03:14:24;100504.13;;;22.16;68.79
71643;BME280;59438;45.014;39.006;2022-09-01T03:16:51;100501.44;;;22.16;69.27
71643;BME280;59438;45.014;39.006;2022-09-01T03:19:17;100500.44;;;22.17;69.17
71643;BME280;59438;45.014;39.006;2022-09-01T03:21:45;100491.72;;;22.15;68.99
71643;BME280;59438;45.014;39.006;2022-09-01T03:24:13;100493.44;;;22.16;69.09
71643;BME280;59438;45.014;39.006;2022-09-01T03:26:42;100512.44;;;22.23;69.24
71643;BME280;59438;45.014;39.006;2022-09-01T03:29:09;100511.50;;;22.24;68.59
71643;BME280;59438;45.014;39.006;2022-09-01T03:31:36;100518.91;;;22.20;68.28
71643;BME280;59438;45.014;39.006;2022-09-01T03:34:03;100515.13;;;22.23;68.27
71643;BME280;59438;45.014;39.006;2022-09-01T03:36:31;100509.19;;;22.19;68.31
71643;BME280;59438;45.014;39.006;2022-09-01T03:38:57;100504.69;;;22.20;68.14
71643;BME280;59438;45.014;39.006;2022-09-01T03:41:26;100510.75;;;22.22;68.38
71643;BME280;59438;45.014;39.006;2022-09-01T03:43:55;100504.84;;;22.18;68.25
71643;BME280;59438;45.014;39.006;2022-09-01T03:46:21;100513.56;;;22.20;67.96
71643;BME280;59438;45.014;39.006;2022-09-01T03:48:50;100502.41;;;22.15;68.07
71643;BME280;59438;45.014;39.006;2022-09-01T03:51:18;100504.38;;;22.13;68.12
71643;BME280;59438;45.014;39.006;2022-09-01T03:53:45;100518.34;;;22.17;68.24
71643;BME280;59438;45.014;39.006;2022-09-01T03:56:11;100523.81;;;22.15;68.29
71643;BME280;59438;45.014;39.006;2022-09-01T03:58:37;100494.63;;;22.02;68.22
71643;BME280;59438;45.014;39.006;2022-09-01T04:01:05;100503.97;;;22.08;68.50
71643;BME280;59438;45.014;39.006;2022-09-01T04:03:32;100510.59;;;22.13;68.63
71643;BME280;59438;45.014;39.006;2022-09-01T04:06:00;100514.13;;;22.14;68.31
71643;BME280;59438;45.014;39.006;2022-09-01T04:08:27;100510.44;;;22.15;68.08
71643;BME280;59438;45.014;39.006;2022-09-01T04:10:54;100507.50;;;22.18;68.15
71643;BME280;59438;45.014;39.006;2022-09-01T04:13:23;100477.34;;;22.06;67.90
71643;BME280;59438;45.014;39.006;2022-09-01T04:15:50;100508.66;;;22.25;68.09
71643;BME280;59438;45.014;39.006;2022-09-01T04:18:18;100510.97;;;22.30;67.78
71643;BME280;59438;45.014;39.006;2022-09-01T04:20:46;100523.91;;;22.35;67.58
71643;BME280;59438;45.014;39.006;2022-09-01T04:23:15;100516.44;;;22.38;67.55
71643;BME280;59438;45.014;39.006;2022-09-01T04:25:42;100515.34;;;22.41;67.29
71643;BME280;59438;45.014;39.006;2022-09-01T04:28:08;100519.44;;;22.45;67.09
71643;BME280;59438;45.014;39.006;2022-09-01T04:30:37;100523.22;;;22.52;67.08
71643;BME280;59438;45.014;39.006;2022-09-01T04:33:03;100518.31;;;22.57;67.13
71643;BME280;59438;45.014;39.006;2022-09-01T04:35:31;100512.53;;;22.62;66.98
71643;BME280;59438;45.014;39.006;2022-09-01T04:37:58;100518.31;;;22.67;66.87
71643;BME280;59438;45.014;39.006;2022-09-01T04:40:25;100520.59;;;22.71;66.93
71643;BME280;59438;45.014;39.006;2022-09-01T04:42:51;100517.47;;;22.76;67.01
71643;BME280;59438;45.014;39.006;2022-09-01T04:45:18;100520.56;;;22.81;67.17
71643;BME280;59438;45.014;39.006;2022-09-01T04:47:44;100514.13;;;22.84;67.27
71643;BME280;59438;45.014;39.006;2022-09-01T04:50:11;100512.84;;;22.88;67.22
71643;BME280;59438;45.014;39.006;2022-09-01T04:52:40;100515.66;;;22.96;67.56
71643;BME280;59438;45.014;39.006;2022-09-01T04:55:08;100502.53;;;22.93;67.36
71643;BME280;59438;45.014;39.006;2022-09-01T04:57:35;100499.59;;;22.96;67.02
71643;BME280;59438;45.014;39.006;2022-09-01T05:00:02;100517.06;;;23.10;66.94
71643;BME280;59438;45.014;39.006;2022-09-01T05:02:28;100524.41;;;23.18;67.05
71643;BME280;59438;45.014;39.006;2022-09-01T05:04:55;100517.63;;;23.23;66.91
71643;BME280;59438;45.014;39.006;2022-09-01T05:07:21;100524.09;;;23.30;66.93
71643;BME280;59438;45.014;39.006;2022-09-01T05:09:49;100528.03;;;23.36;66.81
71643;BME280;59438;45.014;39.006;2022-09-01T05:12:17;100523.63;;;23.45;66.64
71643;BME280;59438;45.014;39.006;2022-09-01T05:14:45;100529.00;;;23.54;66.34
71643;BME280;59438;45.014;39.006;2022-09-01T05:17:12;100521.38;;;23.60;66.29
71643;BME280;59438;45.014;39.006;2022-09-01T05:19:41;100528.97;;;23.64;65.60
71643;BME280;59438;45.014;39.006;2022-09-01T05:22:08;100528.91;;;23.74;65.30
71643;BME280;59438;45.014;39.006;2022-09-01T05:24:35;100534.41;;;23.82;65.55
71643;BME280;59438;45.014;39.006;2022-09-01T05:27:05;100534.69;;;23.89;64.54
71643;BME280;59438;45.014;39.006;2022-09-01T05:29:32;100532.25;;;23.96;64.05
71643;BME280;59438;45.014;39.006;2022-09-01T05:31:58;100545.78;;;24.04;63.50
71643;BME280;59438;45.014;39.006;2022-09-01T05:34:25;100543.22;;;24.12;63.36
71643;BME280;59438;45.014;39.006;2022-09-01T05:36:53;100534.69;;;24.17;63.19
71643;BME280;59438;45.014;39.006;2022-09-01T05:39:20;100541.00;;;24.25;62.77
71643;BME280;59438;45.014;39.006;2022-09-01T05:41:46;100536.03;;;24.30;63.00
71643;BME280;59438;45.014;39.006;2022-09-01T05:44:14;100532.91;;;24.35;62.75
71643;BME280;59438;45.014;39.006;2022-09-01T05:46:41;100534.97;;;24.41;62.93
71643;BME280;59438;45.014;39.006;2022-09-01T05:49:08;100543.59;;;24.45;62.95
71643;BME280;59438;45.014;39.006;2022-09-01T05:51:34;100536.81;;;24.50;62.82
71643;BME280;59438;45.014;39.006;2022-09-01T05:54:01;100544.25;;;24.57;62.52
71643;BME280;59438;45.014;39.006;2022-09-01T05:56:30;100522.38;;;24.51;61.90
71643;BME280;59438;45.014;39.006;2022-09-01T05:58:59;100533.59;;;24.65;61.47
71643;BME280;59438;45.014;39.006;2022-09-01T06:01:28;100543.13;;;24.77;61.22
71643;BME280;59438;45.014;39.006;2022-09-01T06:03:56;100536.75;;;24.78;61.80
71643;BME280;59438;45.014;39.006;2022-09-01T06:06:24;100540.19;;;24.88;61.54
71643;BME280;59438;45.014;39.006;2022-09-01T06:08:52;100542.97;;;24.97;61.51
71643;BME280;59438;45.014;39.006;2022-09-01T06:11:19;100546.00;;;25.02;61.06
71643;BME280;59438;45.014;39.006;2022-09-01T06:13:45;100544.41;;;25.09;61.52
71643;BME280;59438;45.014;39.006;2022-09-01T06:16:12;100541.09;;;25.15;61.26
71643;BME280;59438;45.014;39.006;2022-09-01T06:18:40;100539.69;;;25.21;60.65
71643;BME280;59438;45.014;39.006;2022-09-01T06:21:08;100537.06;;;25.29;61.00
71643;BME280;59438;45.014;39.006;2022-09-01T06:23:34;100530.34;;;25.33;61.02
71643;BME280;59438;45.014;39.006;2022-09-01T06:26:01;100546.22;;;25.44;60.75
71643;BME280;59438;45.014;39.006;2022-09-01T06:28:27;100542.91;;;25.50;60.25
71643;BME280;59438;45.014;39.006;2022-09-01T06:30:54;100538.59;;;25.58;60.39
71643;BME280;59438;45.014;39.006;2022-09-01T06:33:20;100536.09;;;25.64;59.86
71643;BME280;59438;45.014;39.006;2022-09-01T06:35:48;100541.03;;;25.77;59.46
71643;BME280;59438;45.014;39.006;2022-09-01T06:38:15;100541.25;;;25.84;59.49
71643;BME280;59438;45.014;39.006;2022-09-01T06:40:41;100535.78;;;25.93;59.17
71643;BME280;59438;45.014;39.006;2022-09-01T06:43:09;100519.63;;;25.93;59.37
71643;BME280;59438;45.014;39.006;2022-09-01T06:45:40;100540.56;;;26.08;59.01
71643;BME280;59438;45.014;39.006;2022-09-01T06:48:07;100541.28;;;26.18;58.73
71643;BME280;59438;45.014;39.006;2022-09-01T06:50:33;100544.81;;;26.27;58.56
71643;BME280;59438;45.014;39.006;2022-09-01T06:53:02;100550.09;;;26.37;57.36
71643;BME280;59438;45.014;39.006;2022-09-01T06:55:28;100541.34;;;26.43;57.32
71643;BME280;59438;45.014;39.006;2022-09-01T06:57:55;100539.66;;;26.50;57.56
71643;BME280;59438;45.014;39.006;2022-09-01T07:00:21;100531.13;;;26.54;57.30
71643;BME280;59438;45.014;39.006;2022-09-01T07:02:52;100510.91;;;26.50;56.31
71643;BME280;59438;45.014;39.006;2022-09-01T07:05:20;100533.69;;;26.64;56.71
71643;BME280;59438;45.014;39.006;2022-09-01T07:07:47;100532.53;;;26.67;56.76
71643;BME280;59438;45.014;39.006;2022-09-01T07:10:15;100528.31;;;26.72;56.10
71643;BME280;59438;45.014;39.006;2022-09-01T07:12:43;100509.13;;;26.76;55.88
71643;BME280;59438;45.014;39.006;2022-09-01T07:15:10;100518.22;;;26.91;55.78
71643;BME280;59438;45.014;39.006;2022-09-01T07:17:37;100525.47;;;26.99;55.89
71643;BME280;59438;45.014;39.006;2022-09-01T07:20:03;100511.47;;;27.03;55.47
71643;BME280;59438;45.014;39.006;2022-09-01T07:22:30;100523.59;;;27.16;55.16
71643;BME280;59438;45.014;39.006;2022-09-01T07:24:56;100520.22;;;27.22;54.76
71643;BME280;59438;45.014;39.006;2022-09-01T07:27:24;100522.94;;;27.30;54.27
71643;BME280;59438;45.014;39.006;2022-09-01T07:29:50;100532.22;;;27.36;54.40
71643;BME280;59438;45.014;39.006;2022-09-01T07:32:17;100536.78;;;27.43;53.97
71643;BME280;59438;45.014;39.006;2022-09-01T07:34:43;100522.59;;;27.49;54.58
71643;BME280;59438;45.014;39.006;2022-09-01T07:37:10;100522.25;;;27.52;54.28
71643;BME280;59438;45.014;39.006;2022-09-01T07:39:36;100514.78;;;27.63;54.41
71643;BME280;59438;45.014;39.006;2022-09-01T07:42:03;100515.13;;;27.68;54.36
71643;BME280;59438;45.014;39.006;2022-09-01T07:44:31;100512.06;;;27.71;53.95
71643;BME280;59438;45.014;39.006;2022-09-01T07:46:57;100509.53;;;27.78;54.47
71643;BME280;59438;45.014;39.006;2022-09-01T07:49:24;100505.66;;;27.80;54.18
71643;BME280;59438;45.014;39.006;2022-09-01T07:51:50;100502.28;;;27.86;54.20
71643;BME280;59438;45.014;39.006;2022-09-01T07:54:16;100503.25;;;27.93;53.73
71643;BME280;59438;45.014;39.006;2022-09-01T07:56:43;100504.41;;;27.99;53.85
71643;BME280;59438;45.014;39.006;2022-09-01T07:59:09;100502.03;;;28.04;53.67
71643;BME280;59438;45.014;39.006;2022-09-01T08:01:38;100495.09;;;28.10;53.45
71643;BME280;59438;45.014;39.006;2022-09-01T08:04:04;100496.91;;;28.18;53.77
71643;BME280;59438;45.014;39.006;2022-09-01T08:06:30;100490.97;;;28.22;53.26
71643;BME280;59438;45.014;39.006;2022-09-01T08:08:59;100500.72;;;28.31;53.41
71643;BME280;59438;45.014;39.006;2022-09-01T08:11:27;100493.56;;;28.39;53.06
71643;BME280;59438;45.014;39.006;2022-09-01T08:13:56;100491.50;;;28.49;52.70
71643;BME280;59438;45.014;39.006;2022-09-01T08:16:23;100481.69;;;28.56;53.01
71643;BME280;59438;45.014;39.006;2022-09-01T08:18:51;100483.47;;;28.64;51.60
71643;BME280;59438;45.014;39.006;2022-09-01T08:21:18;100476.69;;;28.68;52.38
71643;BME280;59438;45.014;39.006;2022-09-01T08:23:45;100471.88;;;28.78;51.97
71643;BME280;59438;45.014;39.006;2022-09-01T08:26:14;100481.41;;;28.89;51.67
71643;BME280;59438;45.014;39.006;2022-09-01T08:28:41;100472.56;;;28.95;51.50
71643;BME280;59438;45.014;39.006;2022-09-01T08:31:09;100478.56;;;29.05;51.00
71643;BME280;59438;45.014;39.006;2022-09-01T08:33:35;100476.84;;;29.12;50.31
71643;BME280;59438;45.014;39.006;2022-09-01T08:36:06;100477.78;;;29.20;49.41
71643;BME280;59438;45.014;39.006;2022-09-01T08:38:33;100463.53;;;29.26;49.96
71643;BME280;59438;45.014;39.006;2022-09-01T08:41:00;100471.28;;;29.29;49.74
71643;BME280;59438;45.014;39.006;2022-09-01T08:43:36;100462.13;;;29.30;49.77
71643;BME280;59438;45.014;39.006;2022-09-01T08:46:08;100482.75;;;29.46;51.02
71643;BME280;59438;45.014;39.006;2022-09-01T08:48:39;100465.41;;;29.40;49.21
71643;BME280;59438;45.014;39.006;2022-09-01T08:51:15;100472.50;;;29.56;48.82
71643;BME280;59438;45.014;39.006;2022-09-01T08:53:48;100463.91;;;29.52;48.91
71643;BME280;59438;45.014;39.006;2022-09-01T08:56:16;100433.16;;;29.39;47.63
71643;BME280;59438;45.014;39.006;2022-09-01T08:58:43;100480.47;;;29.72;48.86
71643;BME280;59438;45.014;39.006;2022-09-01T09:01:15;100480.75;;;29.78;48.48
71643;BME280;59438;45.014;39.006;2022-09-01T09:03:48;100482.25;;;29.80;48.93
71643;BME280;59438;45.014;39.006;2022-09-01T09:06:23;100476.72;;;29.88;48.02
71643;BME280;59438;45.014;39.006;2022-09-01T09:08:55;100466.91;;;29.87;48.12
71643;BME280;59438;45.014;39.006;2022-09-01T09:11:54;100486.50;;;30.04;48.29
71643;BME280;59438;45.014;39.006;2022-09-01T09:14:36;100486.56;;;30.11;48.12
71643;BME280;59438;45.014;39.006;2022-09-01T09:17:07;100498.31;;;30.18;48.64
71643;BME280;59438;45.014;39.006;2022-09-01T09:19:35;100492.97;;;30.25;48.14
71643;BME280;59438;45.014;39.006;2022-09-01T09:22:07;100506.44;;;30.33;47.45
71643;BME280;59438;45.014;39.006;2022-09-01T09:24:38;100486.34;;;30.27;47.38
71643;BME280;59438;45.014;39.006;2022-09-01T09:27:07;100496.78;;;30.45;47.83
71643;BME280;59438;45.014;39.006;2022-09-01T09:29:33;100505.38;;;30.49;47.52
71643;BME280;59438;45.014;39.006;2022-09-01T09:32:05;100495.63;;;30.55;47.54
71643;BME280;59438;45.014;39.006;2022-09-01T09:34:34;100490.91;;;30.63;46.89
71643;BME280;59438;45.014;39.006;2022-09-01T09:37:23;100501.50;;;30.80;46.58
71643;BME280;59438;45.014;39.006;2022-09-01T09:40:11;100501.66;;;30.93;46.49
71643;BME280;59438;45.014;39.006;2022-09-01T09:42:40;100489.63;;;31.02;46.61
71643;BME280;59438;45.014;39.006;2022-09-01T09:45:21;100503.69;;;31.12;45.68
71643;BME280;59438;45.014;39.006;2022-09-01T09:47:48;100495.59;;;31.19;46.41
71643;BME280;59438;45.014;39.006;2022-09-01T09:50:21;100483.31;;;31.23;45.43
71643;BME280;59438;45.014;39.006;2022-09-01T09:52:51;100486.94;;;31.30;44.74
71643;BME280;59438;45.014;39.006;2022-09-01T09:55:22;100494.91;;;31.39;45.40
71643;BME280;59438;45.014;39.006;2022-09-01T09:57:50;100494.50;;;31.42;44.98
71643;BME280;59438;45.014;39.006;2022-09-01T10:00:21;100498.53;;;31.46;44.23
71643;BME280;59438;45.014;39.006;2022-09-01T10:02:52;100485.59;;;31.48;44.11
71643;BME280;59438;45.014;39.006;2022-09-01T10:05:38;100493.38;;;31.58;44.31
71643;BME280;59438;45.014;39.006;2022-09-01T10:08:08;100478.38;;;31.62;42.75
71643;BME280;59438;45.014;39.006;2022-09-01T10:10:41;100473.81;;;31.69;42.98
71643;BME280;59438;45.014;39.006;2022-09-01T10:13:11;100475.06;;;31.73;42.99
71643;BME280;59438;45.014;39.006;2022-09-01T10:15:37;100474.06;;;31.81;44.86
71643;BME280;59438;45.014;39.006;2022-09-01T10:18:06;100472.41;;;31.80;42.76
71643;BME280;59438;45.014;39.006;2022-09-01T10:20:34;100475.16;;;31.86;42.61
71643;BME280;59438;45.014;39.006;2022-09-01T10:23:02;100467.66;;;31.95;41.62
71643;BME280;59438;45.014;39.006;2022-09-01T10:25:33;100475.03;;;32.01;39.65
71643;BME280;59438;45.014;39.006;2022-09-01T10:28:05;100469.63;;;32.08;38.72
71643;BME280;59438;45.014;39.006;2022-09-01T10:30:36;100469.88;;;32.20;38.84
71643;BME280;59438;45.014;39.006;2022-09-01T10:33:04;100457.34;;;32.25;39.15
71643;BME280;59438;45.014;39.006;2022-09-01T10:35:32;100470.31;;;32.37;39.32
71643;BME280;59438;45.014;39.006;2022-09-01T10:38:03;100468.47;;;32.44;39.44
71643;BME280;59438;45.014;39.006;2022-09-01T10:40:42;100469.94;;;32.46;38.96
71643;BME280;59438;45.014;39.006;2022-09-01T10:43:36;100469.94;;;32.53;38.11
71643;BME280;59438;45.014;39.006;2022-09-01T10:48:58;100466.22;;;32.67;38.03
71643;BME280;59438;45.014;39.006;2022-09-01T10:51:43;100467.06;;;32.75;37.09
71643;BME280;59438;45.014;39.006;2022-09-01T10:57:24;100455.75;;;32.84;36.50
71643;BME280;59438;45.014;39.006;2022-09-01T10:59:54;100463.72;;;32.86;37.15
71643;BME280;59438;45.014;39.006;2022-09-01T11:02:20;100459.13;;;32.80;37.01
71643;BME280;59438;45.014;39.006;2022-09-01T11:05:09;100465.63;;;32.79;37.10
71643;BME280;59438;45.014;39.006;2022-09-01T11:07:36;100457.66;;;32.77;36.96
71643;BME280;59438;45.014;39.006;2022-09-01T11:10:26;100464.97;;;32.83;37.10
71643;BME280;59438;45.014;39.006;2022-09-01T11:13:32;100454.09;;;32.90;37.38
71643;BME280;59438;45.014;39.006;2022-09-01T11:16:25;100453.69;;;32.93;37.87
71643;BME280;59438;45.014;39.006;2022-09-01T11:18:52;100453.69;;;33.00;37.43
71643;BME280;59438;45.014;39.006;2022-09-01T11:21:24;100444.88;;;33.04;36.09
71643;BME280;59438;45.014;39.006;2022-09-01T11:26:56;100435.69;;;33.12;37.11
71643;BME280;59438;45.014;39.006;2022-09-01T11:29:52;100440.09;;;33.20;36.33
71643;BME280;59438;45.014;39.006;2022-09-01T11:32:23;100438.22;;;33.14;36.64
71643;BME280;59438;45.014;39.006;2022-09-01T11:34:50;100437.38;;;33.20;36.68
71643;BME280;59438;45.014;39.006;2022-09-01T11:37:21;100441.75;;;33.14;35.09
71643;BME280;59438;45.014;39.006;2022-09-01T11:39:49;100434.63;;;33.13;36.75
71643;BME280;59438;45.014;39.006;2022-09-01T11:42:18;100431.94;;;33.20;36.31
71643;BME280;59438;45.014;39.006;2022-09-01T11:44:50;100420.19;;;33.26;36.29
71643;BME280;59438;45.014;39.006;2022-09-01T11:47:21;100418.09;;;33.28;36.68
71643;BME280;59438;45.014;39.006;2022-09-01T11:49:51;100414.72;;;33.32;36.46
71643;BME280;59438;45.014;39.006;2022-09-01T11:52:19;100415.53;;;33.40;37.81
71643;BME280;59438;45.014;39.006;2022-09-01T11:54:47;100388.78;;;33.30;36.87
71643;BME280;59438;45.014;39.006;2022-09-01T11:57:23;100397.94;;;33.36;36.24
71643;BME280;59438;45.014;39.006;2022-09-01T11:59:50;100406.31;;;33.41;36.88
71643;BME280;59438;45.014;39.006;2022-09-01T12:02:20;100399.59;;;33.43;36.31
71643;BME280;59438;45.014;39.006;2022-09-01T12:04:48;100399.81;;;33.48;36.07
71643;BME280;59438;45.014;39.006;2022-09-01T12:07:31;100393.50;;;33.55;35.75
71643;BME280;59438;45.014;39.006;2022-09-01T12:10:14;100391.16;;;33.58;36.10
71643;BME280;59438;45.014;39.006;2022-09-01T12:12:43;100395.78;;;33.64;35.59
71643;BME280;59438;45.014;39.006;2022-09-01T12:15:17;100391.19;;;33.65;35.76
71643;BME280;59438;45.014;39.006;2022-09-01T12:17:46;100388.63;;;33.70;36.42
71643;BME280;59438;45.014;39.006;2022-09-01T12:20:27;100390.31;;;33.71;35.64
71643;BME280;59438;45.014;39.006;2022-09-01T12:22:54;100394.72;;;33.72;35.48
71643;BME280;59438;45.014;39.006;2022-09-01T12:25:22;100396.59;;;33.71;36.02
71643;BME280;59438;45.014;39.006;2022-09-01T12:27:49;100392.41;;;33.76;36.53
71643;BME280;59438;45.014;39.006;2022-09-01T12:30:25;100391.94;;;33.79;35.62
71643;BME280;59438;45.014;39.006;2022-09-01T12:32:53;100396.75;;;33.83;34.71
71643;BME280;59438;45.014;39.006;2022-09-01T12:35:23;100400.09;;;33.85;35.23
71643;BME280;59438;45.014;39.006;2022-09-01T12:37:50;100397.75;;;33.89;35.95
71643;BME280;59438;45.014;39.006;2022-09-01T12:40:22;100392.81;;;33.79;34.65
71643;BME280;59438;45.014;39.006;2022-09-01T12:42:51;100401.97;;;33.85;35.38
71643;BME280;59438;45.014;39.006;2022-09-01T12:45:36;100403.03;;;33.84;35.59
71643;BME280;59438;45.014;39.006;2022-09-01T12:48:04;100401.59;;;33.81;35.29
71643;BME280;59438;45.014;39.006;2022-09-01T12:50:34;100398.25;;;33.79;34.84
71643;BME280;59438;45.014;39.006;2022-09-01T12:53:03;100400.72;;;33.81;35.56
71643;BME280;59438;45.014;39.006;2022-09-01T12:55:38;100395.06;;;33.82;35.92
71643;BME280;59438;45.014;39.006;2022-09-01T12:58:06;100389.47;;;33.77;35.38
71643;BME280;59438;45.014;39.006;2022-09-01T13:00:35;100388.59;;;33.77;34.93